sensor_id;sensor_type;location;lat;lon;timestamp;pressure;altitude;pressure_sealevel;temperature;humidity
29467;BME280;60968;37.490;-122.288;2023-02-28T00:02:22;98494.16;;;7.06;100.00
29467;BME280;60968;37.490;-122.288;2023-02-28T00:05:25;98508.78;;;7.12;100.00
29467;BME280;60968;37.490;-122.288;2023-02-28T00:08:26;98511.41;;;7.10;100.00
29467;BME280;60968;37.490;-122.288;2023-02-28T00:11:27;98512.25;;;7.11;100.00
29467;BME280;60968;37.490;-122.288;2023-02-28T00:14:30;98513.22;;;7.00;100.00
29467;BME280;60968;37.490;-122.288;2023-02-28T00:17:31;98512.50;;;6.77;100.00
29467;BME280;60968;37.490;-122.288;2023-02-28T00:20:31;98509.75;;;6.98;100.00
29467;BME280;60968;37.490;-122.288;2023-02-28T00:23:33;98507.06;;;7.11;100.00
29467;BME280;60968;37.490;-122.288;2023-02-28T00:26:34;98502.00;;;6.95;100.00
29467;BME280;60968;37.490;-122.288;2023-02-28T00:29:34;98508.25;;;6.65;100.00
29467;BME280;60968;37.490;-122.288;2023-02-28T00:32:36;98515.34;;;6.35;100.00
29467;BME280;60968;37.490;-122.288;2023-02-28T00:35:36;98528.34;;;6.20;100.00
29467;BME280;60968;37.490;-122.288;2023-02-28T00:38:38;98522.38;;;6.02;100.00
29467;BME280;60968;37.490;-122.288;2023-02-28T00:41:43;98521.50;;;5.95;100.00
29467;BME280;60968;37.490;-122.288;2023-02-28T00:44:44;98525.84;;;5.79;100.00
29467;BME280;60968;37.490;-122.288;2023-02-28T00:47:45;98540.50;;;5.80;100.00
29467;BME280;60968;37.490;-122.288;2023-02-28T00:50:48;98540.53;;;5.73;100.00
29467;BME280;60968;37.490;-122.288;2023-02-28T00:53:49;98539.66;;;5.72;100.00
29467;BME280;60968;37.490;-122.288;2023-02-28T00:56:50;98549.16;;;5.65;100.00
29467;BME280;60968;37.490;-122.288;2023-02-28T00:59:54;98555.19;;;5.66;100.00
29467;BME280;60968;37.490;-122.288;2023-02-28T01:02:57;98551.69;;;5.78;100.00
29467;BME280;60968;37.490;-122.288;2023-02-28T01:05:58;98557.72;;;5.92;100.00
29467;BME280;60968;37.490;-122.288;2023-02-28T01:09:00;98558.56;;;5.93;100.00
29467;BME280;60968;37.490;-122.288;2023-02-28T01:12:03;98563.78;;;5.76;100.00
29467;BME280;60968;37.490;-122.288;2023-02-28T01:15:05;98565.50;;;5.72;100.00
29467;BME280;60968;37.490;-122.288;2023-02-28T01:18:07;98569.81;;;5.75;100.00
29467;BME280;60968;37.490;-122.288;2023-02-28T01:21:11;98562.09;;;5.67;100.00
29467;BME280;60968;37.490;-122.288;2023-02-28T01:24:13;98571.56;;;5.59;100.00
29467;BME280;60968;37.490;-122.288;2023-02-28T01:27:13;98575.03;;;5.53;100.00
29467;BME280;60968;37.490;-122.288;2023-02-28T01:30:14;98571.56;;;5.45;100.00
29467;BME280;60968;37.490;-122.288;2023-02-28T01:33:16;98575.00;;;5.47;100.00
29467;BME280;60968;37.490;-122.288;2023-02-28T01:36:20;98567.28;;;5.53;100.00
29467;BME280;60968;37.490;-122.288;2023-02-28T01:39:21;98569.00;;;5.56;100.00
29467;BME280;60968;37.490;-122.288;2023-02-28T01:42:22;98568.97;;;5.53;100.00
29467;BME280;60968;37.490;-122.288;2023-02-28T01:45:31;98581.91;;;5.42;100.00
29467;BME280;60968;37.490;-122.288;2023-02-28T01:48:35;98584.50;;;5.46;100.00
29467;BME280;60968;37.490;-122.288;2023-02-28T01:51:53;98582.75;;;5.45;100.00
29467;BME280;60968;37.490;-122.288;2023-02-28T01:54:56;98582.78;;;5.42;100.00
29467;BME280;60968;37.490;-122.288;2023-02-28T01:58:07;98575.88;;;5.41;100.00
29467;BME280;60968;37.490;-122.288;2023-02-28T02:01:13;98575.03;;;5.33;100.00
29467;BME280;60968;37.490;-122.288;2023-02-28T02:04:14;98588.81;;;5.33;100.00
29467;BME280;60968;37.490;-122.288;2023-02-28T02:07:16;98596.56;;;5.32;100.00
29467;BME280;60968;37.490;-122.288;2023-02-28T02:10:20;98596.56;;;5.15;100.00
29467;BME280;60968;37.490;-122.288;2023-02-28T02:17:28;98605.16;;;5.17;100.00
29467;BME280;60968;37.490;-122.288;2023-02-28T02:24:47;98618.91;;;5.13;100.00
29467;BME280;60968;37.490;-122.288;2023-02-28T02:34:58;98624.97;;;5.18;100.00
29467;BME280;60968;37.490;-122.288;2023-02-28T02:38:07;98618.94;;;5.18;100.00
29467;BME280;60968;37.490;-122.288;2023-02-28T02:44:33;98612.91;;;5.17;100.00
29467;BME280;60968;37.490;-122.288;2023-02-28T02:47:39;98618.06;;;5.14;100.00
29467;BME280;60968;37.490;-122.288;2023-02-28T02:50:56;98629.25;;;5.07;100.00
29467;BME280;60968;37.490;-122.288;2023-02-28T02:54:27;98633.53;;;5.03;100.00
29467;BME280;60968;37.490;-122.288;2023-02-28T02:57:57;98630.94;;;4.95;100.00
29467;BME280;60968;37.490;-122.288;2023-02-28T03:01:03;98643.84;;;4.94;100.00
29467;BME280;60968;37.490;-122.288;2023-02-28T03:04:16;98647.25;;;4.82;100.00
29467;BME280;60968;37.490;-122.288;2023-02-28T03:07:17;98654.94;;;4.67;100.00
29467;BME280;60968;37.490;-122.288;2023-02-28T03:10:41;98654.91;;;4.57;100.00
29467;BME280;60968;37.490;-122.288;2023-02-28T03:23:48;98670.41;;;4.59;100.00
29467;BME280;60968;37.490;-122.288;2023-02-28T03:27:30;98677.31;;;4.60;100.00
29467;BME280;60968;37.490;-122.288;2023-02-28T03:30:42;98672.09;;;4.55;100.00
29467;BME280;60968;37.490;-122.288;2023-02-28T03:33:51;98681.59;;;4.62;100.00
29467;BME280;60968;37.490;-122.288;2023-02-28T03:37:02;98686.75;;;4.64;100.00
29467;BME280;60968;37.490;-122.288;2023-02-28T03:40:11;98680.75;;;4.67;100.00
29467;BME280;60968;37.490;-122.288;2023-02-28T03:43:19;98678.22;;;4.77;100.00
29467;BME280;60968;37.490;-122.288;2023-02-28T03:46:23;98685.13;;;4.89;100.00
29467;BME280;60968;37.490;-122.288;2023-02-28T03:49:32;98679.13;;;4.89;100.00
29467;BME280;60968;37.490;-122.288;2023-02-28T03:52:38;98675.69;;;4.90;100.00
29467;BME280;60968;37.490;-122.288;2023-02-28T03:55:55;98687.75;;;4.94;100.00
29467;BME280;60968;37.490;-122.288;2023-02-28T03:59:08;98689.50;;;5.03;100.00
29467;BME280;60968;37.490;-122.288;2023-02-28T04:02:13;98687.81;;;5.19;100.00
29467;BME280;60968;37.490;-122.288;2023-02-28T04:05:15;98692.16;;;5.40;100.00
29467;BME280;60968;37.490;-122.288;2023-02-28T04:08:16;98699.91;;;5.58;100.00
29467;BME280;60968;37.490;-122.288;2023-02-28T04:11:36;98699.91;;;5.54;100.00
29467;BME280;60968;37.490;-122.288;2023-02-28T04:14:37;98700.78;;;5.45;100.00
29467;BME280;60968;37.490;-122.288;2023-02-28T04:17:41;98688.69;;;5.28;100.00
29467;BME280;60968;37.490;-122.288;2023-02-28T04:20:42;98695.53;;;5.11;100.00
29467;BME280;60968;37.490;-122.288;2023-02-28T04:23:43;98704.13;;;5.07;100.00
29467;BME280;60968;37.490;-122.288;2023-02-28T04:26:48;98702.41;;;5.03;100.00
29467;BME280;60968;37.490;-122.288;2023-02-28T04:29:50;98698.09;;;4.97;100.00
29467;BME280;60968;37.490;-122.288;2023-02-28T04:32:51;98710.09;;;4.87;100.00
29467;BME280;60968;37.490;-122.288;2023-02-28T04:35:59;98700.59;;;4.81;100.00
29467;BME280;60968;37.490;-122.288;2023-02-28T04:39:01;98704.03;;;4.82;100.00
29467;BME280;60968;37.490;-122.288;2023-02-28T04:42:03;98697.19;;;4.84;100.00
29467;BME280;60968;37.490;-122.288;2023-02-28T04:45:04;98700.59;;;4.83;100.00
29467;BME280;60968;37.490;-122.288;2023-02-28T04:48:05;98706.66;;;4.88;100.00
29467;BME280;60968;37.490;-122.288;2023-02-28T04:51:12;98699.81;;;5.00;100.00
29467;BME280;60968;37.490;-122.288;2023-02-28T04:54:13;98698.97;;;5.10;100.00
29467;BME280;60968;37.490;-122.288;2023-02-28T04:57:14;98707.59;;;5.13;100.00
29467;BME280;60968;37.490;-122.288;2023-02-28T05:00:18;98706.72;;;5.16;100.00
29467;BME280;60968;37.490;-122.288;2023-02-28T05:03:19;98711.91;;;5.16;100.00
29467;BME280;60968;37.490;-122.288;2023-02-28T05:06:21;98709.31;;;5.16;100.00
29467;BME280;60968;37.490;-122.288;2023-02-28T05:09:22;98710.16;;;5.10;100.00
29467;BME280;60968;37.490;-122.288;2023-02-28T05:12:23;98721.38;;;5.08;100.00
29467;BME280;60968;37.490;-122.288;2023-02-28T05:15:24;98709.25;;;4.97;100.00
29467;BME280;60968;37.490;-122.288;2023-02-28T05:18:25;98722.16;;;4.93;100.00
29467;BME280;60968;37.490;-122.288;2023-02-28T05:24:37;98729.06;;;5.00;100.00
29467;BME280;60968;37.490;-122.288;2023-02-28T05:27:38;98737.72;;;5.04;100.00
29467;BME280;60968;37.490;-122.288;2023-02-28T05:30:40;98744.63;;;5.08;100.00
29467;BME280;60968;37.490;-122.288;2023-02-28T05:33:41;98733.38;;;5.03;100.00
29467;BME280;60968;37.490;-122.288;2023-02-28T05:36:44;98723.00;;;4.84;100.00
29467;BME280;60968;37.490;-122.288;2023-02-28T05:39:45;98718.66;;;4.78;100.00
29467;BME280;60968;37.490;-122.288;2023-02-28T05:42:56;98720.38;;;4.78;100.00
29467;BME280;60968;37.490;-122.288;2023-02-28T05:45:56;98710.03;;;4.78;100.00
29467;BME280;60968;37.490;-122.288;2023-02-28T05:49:01;98698.88;;;4.77;100.00
29467;BME280;60968;37.490;-122.288;2023-02-28T05:52:02;98716.09;;;4.86;100.00
29467;BME280;60968;37.490;-122.288;2023-02-28T05:55:06;98718.72;;;4.92;100.00
29467;BME280;60968;37.490;-122.288;2023-02-28T05:58:10;98754.00;;;4.90;100.00
29467;BME280;60968;37.490;-122.288;2023-02-28T06:01:37;98791.03;;;4.92;100.00
29467;BME280;60968;37.490;-122.288;2023-02-28T06:04:39;98783.13;;;4.63;100.00
29467;BME280;60968;37.490;-122.288;2023-02-28T06:07:40;98784.78;;;4.53;100.00
29467;BME280;60968;37.490;-122.288;2023-02-28T06:10:41;98784.69;;;4.41;100.00
29467;BME280;60968;37.490;-122.288;2023-02-28T06:13:42;98795.91;;;4.44;100.00
29467;BME280;60968;37.490;-122.288;2023-02-28T06:16:43;98798.44;;;4.40;100.00
29467;BME280;60968;37.490;-122.288;2023-02-28T06:19:44;98790.66;;;4.34;100.00
29467;BME280;60968;37.490;-122.288;2023-02-28T06:22:44;98795.81;;;4.34;100.00
29467;BME280;60968;37.490;-122.288;2023-02-28T06:25:46;98794.91;;;4.28;100.00
29467;BME280;60968;37.490;-122.288;2023-02-28T06:28:48;98804.34;;;4.23;100.00
29467;BME280;60968;37.490;-122.288;2023-02-28T06:31:49;98799.13;;;4.17;100.00
29467;BME280;60968;37.490;-122.288;2023-02-28T06:34:51;98806.03;;;4.21;100.00
29467;BME280;60968;37.490;-122.288;2023-02-28T06:37:52;98803.47;;;4.23;100.00
29467;BME280;60968;37.490;-122.288;2023-02-28T06:40:55;98805.22;;;4.28;100.00
29467;BME280;60968;37.490;-122.288;2023-02-28T06:43:57;98807.00;;;4.36;100.00
29467;BME280;60968;37.490;-122.288;2023-02-28T06:46:58;98800.97;;;4.34;100.00
29467;BME280;60968;37.490;-122.288;2023-02-28T06:49:58;98809.59;;;4.37;100.00
29467;BME280;60968;37.490;-122.288;2023-02-28T06:52:59;98805.31;;;4.41;100.00
29467;BME280;60968;37.490;-122.288;2023-02-28T06:56:07;98807.06;;;4.45;100.00
29467;BME280;60968;37.490;-122.288;2023-02-28T06:59:09;98802.75;;;4.44;100.00
29467;BME280;60968;37.490;-122.288;2023-02-28T07:02:11;98804.47;;;4.42;100.00
29467;BME280;60968;37.490;-122.288;2023-02-28T07:05:12;98801.03;;;4.43;100.00
29467;BME280;60968;37.490;-122.288;2023-02-28T07:08:14;98802.72;;;4.36;100.00
29467;BME280;60968;37.490;-122.288;2023-02-28T07:11:16;98797.47;;;4.27;100.00
29467;BME280;60968;37.490;-122.288;2023-02-28T07:14:18;98802.63;;;4.24;100.00
29467;BME280;60968;37.490;-122.288;2023-02-28T07:17:18;98798.28;;;4.21;100.00
29467;BME280;60968;37.490;-122.288;2023-02-28T07:20:19;98806.88;;;4.20;100.00
29467;BME280;60968;37.490;-122.288;2023-02-28T07:23:21;98806.00;;;4.18;100.00
29467;BME280;60968;37.490;-122.288;2023-02-28T07:26:22;98806.84;;;4.17;100.00
29467;BME280;60968;37.490;-122.288;2023-02-28T07:29:23;98805.16;;;4.19;100.00
29467;BME280;60968;37.490;-122.288;2023-02-28T07:32:23;98806.00;;;4.18;100.00
29467;BME280;60968;37.490;-122.288;2023-02-28T07:35:24;98811.16;;;4.15;100.00
29467;BME280;60968;37.490;-122.288;2023-02-28T07:38:25;98804.22;;;4.11;100.00
29467;BME280;60968;37.490;-122.288;2023-02-28T07:41:26;98805.91;;;4.06;100.00
29467;BME280;60968;37.490;-122.288;2023-02-28T07:44:27;98804.16;;;4.06;100.00
29467;BME280;60968;37.490;-122.288;2023-02-28T07:47:31;98804.16;;;4.03;100.00
29467;BME280;60968;37.490;-122.288;2023-02-28T07:50:32;98802.47;;;4.05;100.00
29467;BME280;60968;37.490;-122.288;2023-02-28T07:53:33;98798.16;;;4.03;100.00
29467;BME280;60968;37.490;-122.288;2023-02-28T07:56:34;98805.06;;;4.07;100.00
29467;BME280;60968;37.490;-122.288;2023-02-28T07:59:36;98806.78;;;4.08;100.00
29467;BME280;60968;37.490;-122.288;2023-02-28T08:02:38;98807.69;;;4.13;100.00
29467;BME280;60968;37.490;-122.288;2023-02-28T08:05:39;98795.63;;;4.12;100.00
29467;BME280;60968;37.490;-122.288;2023-02-28T08:08:41;98801.66;;;4.12;100.00
29467;BME280;60968;37.490;-122.288;2023-02-28T08:11:41;98799.94;;;4.13;100.00
29467;BME280;60968;37.490;-122.288;2023-02-28T08:14:43;98793.03;;;4.12;100.00
29467;BME280;60968;37.490;-122.288;2023-02-28T08:17:44;98789.63;;;4.15;100.00
29467;BME280;60968;37.490;-122.288;2023-02-28T08:20:46;98787.06;;;4.18;100.00
29467;BME280;60968;37.490;-122.288;2023-02-28T08:23:50;98785.38;;;4.20;100.00
29467;BME280;60968;37.490;-122.288;2023-02-28T08:26:51;98786.22;;;4.17;100.00
29467;BME280;60968;37.490;-122.288;2023-02-28T08:29:52;98785.38;;;4.17;100.00
29467;BME280;60968;37.490;-122.288;2023-02-28T08:32:53;98796.53;;;4.17;100.00
29467;BME280;60968;37.490;-122.288;2023-02-28T08:35:55;98794.81;;;4.16;100.00
29467;BME280;60968;37.490;-122.288;2023-02-28T08:38:57;98787.94;;;4.15;100.00
29467;BME280;60968;37.490;-122.288;2023-02-28T08:42:00;98778.47;;;4.16;100.00
29467;BME280;60968;37.490;-122.288;2023-02-28T08:45:00;98785.34;;;4.14;100.00
29467;BME280;60968;37.490;-122.288;2023-02-28T08:48:01;98779.31;;;4.16;100.00
29467;BME280;60968;37.490;-122.288;2023-02-28T08:51:05;98775.03;;;4.15;100.00
29467;BME280;60968;37.490;-122.288;2023-02-28T08:54:07;98780.19;;;4.15;100.00
29467;BME280;60968;37.490;-122.288;2023-02-28T08:57:08;98774.16;;;4.16;100.00
29467;BME280;60968;37.490;-122.288;2023-02-28T09:00:10;98774.16;;;4.16;100.00
29467;BME280;60968;37.490;-122.288;2023-02-28T09:03:11;98771.59;;;4.16;100.00
29467;BME280;60968;37.490;-122.288;2023-02-28T09:06:12;98777.66;;;4.20;100.00
29467;BME280;60968;37.490;-122.288;2023-02-28T09:09:13;98778.50;;;4.19;100.00
29467;BME280;60968;37.490;-122.288;2023-02-28T09:12:14;98791.44;;;4.23;100.00
29467;BME280;60968;37.490;-122.288;2023-02-28T09:15:15;98785.41;;;4.26;100.00
29467;BME280;60968;37.490;-122.288;2023-02-28T09:18:16;98788.06;;;4.31;100.00
29467;BME280;60968;37.490;-122.288;2023-02-28T09:21:18;98788.94;;;4.37;100.00
29467;BME280;60968;37.490;-122.288;2023-02-28T09:24:20;98789.88;;;4.45;100.00
29467;BME280;60968;37.490;-122.288;2023-02-28T09:27:21;98792.50;;;4.53;100.00
29467;BME280;60968;37.490;-122.288;2023-02-28T09:30:21;98802.00;;;4.57;100.00
29467;BME280;60968;37.490;-122.288;2023-02-28T09:33:23;98795.13;;;4.62;100.00
29467;BME280;60968;37.490;-122.288;2023-02-28T09:36:25;98790.88;;;4.68;100.00
29467;BME280;60968;37.490;-122.288;2023-02-28T09:39:26;98780.53;;;4.60;100.00
29467;BME280;60968;37.490;-122.288;2023-02-28T09:42:32;98782.13;;;4.49;100.00
29467;BME280;60968;37.490;-122.288;2023-02-28T09:45:38;98779.50;;;4.35;100.00
29467;BME280;60968;37.490;-122.288;2023-02-28T09:48:44;98782.00;;;4.27;100.00
29467;BME280;60968;37.490;-122.288;2023-02-28T09:52:06;98784.56;;;4.22;100.00
29467;BME280;60968;37.490;-122.288;2023-02-28T09:55:19;98778.47;;;4.12;100.00
29467;BME280;60968;37.490;-122.288;2023-02-28T09:58:47;98779.25;;;4.05;100.00
29467;BME280;60968;37.490;-122.288;2023-02-28T10:02:17;98774.03;;;4.01;100.00
29467;BME280;60968;37.490;-122.288;2023-02-28T10:05:28;98773.16;;;3.97;100.00
29467;BME280;60968;37.490;-122.288;2023-02-28T10:08:45;98765.34;;;3.89;100.00
29467;BME280;60968;37.490;-122.288;2023-02-28T10:11:54;98761.84;;;3.81;100.00
29467;BME280;60968;37.490;-122.288;2023-02-28T10:14:59;98762.72;;;3.82;100.00
29467;BME280;60968;37.490;-122.288;2023-02-28T10:18:04;98755.81;;;3.79;100.00
29467;BME280;60968;37.490;-122.288;2023-02-28T10:21:06;98753.28;;;3.82;100.00
29467;BME280;60968;37.490;-122.288;2023-02-28T10:24:47;98752.44;;;3.86;100.00
29467;BME280;60968;37.490;-122.288;2023-02-28T10:28:18;98750.66;;;3.79;100.00
29467;BME280;60968;37.490;-122.288;2023-02-28T10:31:20;98742.97;;;3.82;100.00
29467;BME280;60968;37.490;-122.288;2023-02-28T10:34:22;98738.72;;;3.86;100.00
29467;BME280;60968;37.490;-122.288;2023-02-28T10:37:23;98735.22;;;3.82;100.00
29467;BME280;60968;37.490;-122.288;2023-02-28T10:43:24;98728.38;;;3.84;100.00
29467;BME280;60968;37.490;-122.288;2023-02-28T10:46:33;98732.66;;;3.85;100.00
29467;BME280;60968;37.490;-122.288;2023-02-28T10:49:34;98733.59;;;3.90;100.00
29467;BME280;60968;37.490;-122.288;2023-02-28T10:52:39;98727.63;;;3.98;100.00
29467;BME280;60968;37.490;-122.288;2023-02-28T10:55:42;98717.38;;;4.02;100.00
29467;BME280;60968;37.490;-122.288;2023-02-28T10:59:03;98710.47;;;4.00;100.00
29467;BME280;60968;37.490;-122.288;2023-02-28T11:02:34;98716.47;;;3.99;100.00
29467;BME280;60968;37.490;-122.288;2023-02-28T11:05:36;98717.31;;;3.96;100.00
29467;BME280;60968;37.490;-122.288;2023-02-28T11:08:54;98724.19;;;3.94;100.00
29467;BME280;60968;37.490;-122.288;2023-02-28T11:11:58;98722.47;;;3.96;100.00
29467;BME280;60968;37.490;-122.288;2023-02-28T11:15:05;98709.56;;;3.94;100.00
29467;BME280;60968;37.490;-122.288;2023-02-28T11:21:36;98708.66;;;3.89;100.00
29467;BME280;60968;37.490;-122.288;2023-02-28T11:24:43;98707.81;;;3.90;100.00
29467;BME280;60968;37.490;-122.288;2023-02-28T11:27:56;98701.78;;;3.88;100.00
29467;BME280;60968;37.490;-122.288;2023-02-28T11:31:08;98704.41;;;3.93;100.00
29467;BME280;60968;37.490;-122.288;2023-02-28T11:34:25;98708.69;;;3.92;100.00
29467;BME280;60968;37.490;-122.288;2023-02-28T11:37:27;98704.38;;;3.90;100.00
29467;BME280;60968;37.490;-122.288;2023-02-28T11:40:39;98701.78;;;3.87;100.00
29467;BME280;60968;37.490;-122.288;2023-02-28T11:47:07;98694.91;;;3.90;100.00
29467;BME280;60968;37.490;-122.288;2023-02-28T11:53:55;98689.75;;;3.90;100.00
29467;BME280;60968;37.490;-122.288;2023-02-28T11:57:29;98677.81;;;4.03;100.00
29467;BME280;60968;37.490;-122.288;2023-02-28T12:04:17;98688.19;;;4.08;100.00
29467;BME280;60968;37.490;-122.288;2023-02-28T12:07:50;98683.91;;;4.15;100.00
29467;BME280;60968;37.490;-122.288;2023-02-28T12:11:40;98679.66;;;4.21;100.00
29467;BME280;60968;37.490;-122.288;2023-02-28T12:15:02;98678.75;;;4.18;100.00
29467;BME280;60968;37.490;-122.288;2023-02-28T12:18:39;98671.06;;;4.19;100.00
29467;BME280;60968;37.490;-122.288;2023-02-28T12:27:56;98668.53;;;4.30;100.00
29467;BME280;60968;37.490;-122.288;2023-02-28T12:31:11;98650.53;;;4.35;100.00
29467;BME280;60968;37.490;-122.288;2023-02-28T12:34:25;98654.78;;;4.33;100.00
29467;BME280;60968;37.490;-122.288;2023-02-28T12:37:41;98655.63;;;4.32;100.00
29467;BME280;60968;37.490;-122.288;2023-02-28T12:40:49;98655.63;;;4.25;100.00
29467;BME280;60968;37.490;-122.288;2023-02-28T12:44:02;98657.34;;;4.23;100.00
29467;BME280;60968;37.490;-122.288;2023-02-28T12:47:09;98647.88;;;4.22;100.00
29467;BME280;60968;37.490;-122.288;2023-02-28T12:50:13;98651.31;;;4.26;100.00
29467;BME280;60968;37.490;-122.288;2023-02-28T13:00:14;98657.44;;;4.45;100.00
29467;BME280;60968;37.490;-122.288;2023-02-28T13:03:34;98649.69;;;4.48;100.00
29467;BME280;60968;37.490;-122.288;2023-02-28T13:09:57;98636.81;;;4.51;100.00
29467;BME280;60968;37.490;-122.288;2023-02-28T13:13:03;98633.38;;;4.52;100.00
29467;BME280;60968;37.490;-122.288;2023-02-28T13:16:10;98631.66;;;4.50;100.00
29467;BME280;60968;37.490;-122.288;2023-02-28T13:19:11;98635.06;;;4.49;100.00
29467;BME280;60968;37.490;-122.288;2023-02-28T13:35:37;98629.06;;;4.51;100.00
29467;BME280;60968;37.490;-122.288;2023-02-28T13:41:48;98609.31;;;4.56;100.00
29467;BME280;60968;37.490;-122.288;2023-02-28T13:48:25;98616.16;;;4.51;100.00
29467;BME280;60968;37.490;-122.288;2023-02-28T14:01:48;98623.09;;;4.60;100.00
29467;BME280;60968;37.490;-122.288;2023-02-28T14:05:22;98641.16;;;4.61;100.00
29467;BME280;60968;37.490;-122.288;2023-02-28T14:08:23;98622.22;;;4.59;100.00
29467;BME280;60968;37.490;-122.288;2023-02-28T14:11:37;98617.06;;;4.59;100.00
29467;BME280;60968;37.490;-122.288;2023-02-28T14:17:40;98602.44;;;4.58;100.00
29467;BME280;60968;37.490;-122.288;2023-02-28T14:20:42;98599.00;;;4.52;100.00
29467;BME280;60968;37.490;-122.288;2023-02-28T14:27:35;98574.84;;;4.36;100.00
29467;BME280;60968;37.490;-122.288;2023-02-28T14:37:47;98567.97;;;4.41;100.00
29467;BME280;60968;37.490;-122.288;2023-02-28T14:40:51;98560.25;;;4.41;100.00
29467;BME280;60968;37.490;-122.288;2023-02-28T14:43:56;98558.50;;;4.41;100.00
29467;BME280;60968;37.490;-122.288;2023-02-28T14:47:00;98552.50;;;4.35;100.00
29467;BME280;60968;37.490;-122.288;2023-02-28T14:50:04;98550.75;;;4.34;100.00
29467;BME280;60968;37.490;-122.288;2023-02-28T14:53:09;98549.88;;;4.24;100.00
29467;BME280;60968;37.490;-122.288;2023-02-28T14:56:36;98537.81;;;4.23;100.00
29467;BME280;60968;37.490;-122.288;2023-02-28T14:59:37;98526.66;;;4.25;100.00
29467;BME280;60968;37.490;-122.288;2023-02-28T15:02:39;98531.81;;;4.30;100.00
29467;BME280;60968;37.490;-122.288;2023-02-28T15:05:40;98531.03;;;4.46;100.00
29467;BME280;60968;37.490;-122.288;2023-02-28T15:08:41;98531.91;;;4.58;100.00
29467;BME280;60968;37.490;-122.288;2023-02-28T15:11:47;98534.53;;;4.67;100.00
29467;BME280;60968;37.490;-122.288;2023-02-28T15:14:48;98523.34;;;4.71;100.00
29467;BME280;60968;37.490;-122.288;2023-02-28T15:17:55;98519.03;;;4.79;100.00
29467;BME280;60968;37.490;-122.288;2023-02-28T15:21:05;98536.25;;;4.94;100.00
29467;BME280;60968;37.490;-122.288;2023-02-28T15:27:33;98519.91;;;5.05;100.00
29467;BME280;60968;37.490;-122.288;2023-02-28T15:30:39;98521.63;;;5.06;100.00
29467;BME280;60968;37.490;-122.288;2023-02-28T15:33:58;98525.09;;;5.12;100.00
29467;BME280;60968;37.490;-122.288;2023-02-28T15:37:52;98524.25;;;5.13;100.00
29467;BME280;60968;37.490;-122.288;2023-02-28T15:40:31;98535.41;;;5.17;100.00
29467;BME280;60968;37.490;-122.288;2023-02-28T15:43:35;98539.72;;;5.20;100.00
29467;BME280;60968;37.490;-122.288;2023-02-28T15:46:36;98520.78;;;5.16;100.00
29467;BME280;60968;37.490;-122.288;2023-02-28T15:50:05;98525.94;;;5.22;100.00
29467;BME280;60968;37.490;-122.288;2023-02-28T15:53:14;98524.22;;;5.29;100.00
29467;BME280;60968;37.490;-122.288;2023-02-28T15:56:28;98527.66;;;5.28;100.00
29467;BME280;60968;37.490;-122.288;2023-02-28T15:59:30;98520.75;;;5.31;100.00
29467;BME280;60968;37.490;-122.288;2023-02-28T16:02:34;98534.56;;;5.33;100.00
29467;BME280;60968;37.490;-122.288;2023-02-28T16:05:35;98517.31;;;5.32;100.00
29467;BME280;60968;37.490;-122.288;2023-02-28T16:08:36;98529.38;;;5.49;100.00
29467;BME280;60968;37.490;-122.288;2023-02-28T16:11:43;98532.81;;;5.49;100.00
29467;BME280;60968;37.490;-122.288;2023-02-28T16:14:46;98543.13;;;5.53;100.00
29467;BME280;60968;37.490;-122.288;2023-02-28T16:17:48;98538.84;;;5.52;100.00
29467;BME280;60968;37.490;-122.288;2023-02-28T16:20:49;98542.28;;;5.49;100.00
29467;BME280;60968;37.490;-122.288;2023-02-28T16:23:50;98535.38;;;5.51;100.00
29467;BME280;60968;37.490;-122.288;2023-02-28T16:26:53;98546.59;;;5.56;100.00
29467;BME280;60968;37.490;-122.288;2023-02-28T16:30:09;98553.47;;;5.53;100.00
29467;BME280;60968;37.490;-122.288;2023-02-28T16:37:34;98535.34;;;5.77;100.00
29467;BME280;60968;37.490;-122.288;2023-02-28T16:40:39;98523.25;;;5.89;100.00
29467;BME280;60968;37.490;-122.288;2023-02-28T16:43:40;98521.53;;;5.86;100.00
29467;BME280;60968;37.490;-122.288;2023-02-28T16:46:41;98525.81;;;5.95;100.00
29467;BME280;60968;37.490;-122.288;2023-02-28T16:49:42;98518.06;;;6.03;100.00
29467;BME280;60968;37.490;-122.288;2023-02-28T16:52:42;98518.03;;;6.09;100.00
29467;BME280;60968;37.490;-122.288;2023-02-28T16:55:43;98520.63;;;6.12;100.00
29467;BME280;60968;37.490;-122.288;2023-02-28T16:58:45;98512.88;;;6.06;100.00
29467;BME280;60968;37.490;-122.288;2023-02-28T17:01:46;98512.00;;;5.96;100.00
29467;BME280;60968;37.490;-122.288;2023-02-28T17:04:47;98506.00;;;5.89;100.00
29467;BME280;60968;37.490;-122.288;2023-02-28T17:07:49;98514.59;;;5.94;100.00
29467;BME280;60968;37.490;-122.288;2023-02-28T17:10:50;98523.25;;;6.03;100.00
29467;BME280;60968;37.490;-122.288;2023-02-28T17:13:51;98526.63;;;6.15;100.00
29467;BME280;60968;37.490;-122.288;2023-02-28T17:16:52;98528.34;;;6.20;100.00
29467;BME280;60968;37.490;-122.288;2023-02-28T17:19:53;98527.47;;;6.24;100.00
29467;BME280;60968;37.490;-122.288;2023-02-28T17:22:55;98519.63;;;6.38;100.00
29467;BME280;60968;37.490;-122.288;2023-02-28T17:25:56;98519.59;;;6.42;100.00
29467;BME280;60968;37.490;-122.288;2023-02-28T17:28:57;98507.44;;;6.55;100.00
29467;BME280;60968;37.490;-122.288;2023-02-28T17:31:58;98520.38;;;6.57;100.00
29467;BME280;60968;37.490;-122.288;2023-02-28T17:34:59;98524.75;;;6.51;100.00
29467;BME280;60968;37.490;-122.288;2023-02-28T17:38:00;98522.19;;;6.48;100.00
29467;BME280;60968;37.490;-122.288;2023-02-28T17:41:01;98516.09;;;6.51;100.00
29467;BME280;60968;37.490;-122.288;2023-02-28T17:44:01;98504.03;;;6.53;100.00